sensor_id;sensor_type;location;lat;lon;timestamp;noise_LAeq;noise_LA_min;noise_LA_max;noise_LA01;noise_LA95
64393;Laerm;50712;49.506;10.400;2023-03-13T00:00:08;29.73;27.96;33.63;;
64393;Laerm;50712;49.506;10.400;2023-03-13T00:00:39;29.37;27.96;34.66;;
64393;Laerm;50712;49.506;10.400;2023-03-13T00:01:16;28.94;27.88;30.22;;
64393;Laerm;50712;49.506;10.400;2023-03-13T00:01:47;28.96;27.64;30.23;;
64393;Laerm;50712;49.506;10.400;2023-03-13T00:02:18;29.02;27.56;31.30;;
64393;Laerm;50712;49.506;10.400;2023-03-13T00:02:48;28.98;27.80;30.52;;
64393;Laerm;50712;49.506;10.400;2023-03-13T00:03:19;29.31;28.00;31.92;;
64393;Laerm;50712;49.506;10.400;2023-03-13T00:03:50;31.19;28.07;41.84;;
64393;Laerm;50712;49.506;10.400;2023-03-13T00:04:20;45.18;31.55;62.60;;
64393;Laerm;50712;49.506;10.400;2023-03-13T00:04:51;42.74;32.68;54.43;;
64393;Laerm;50712;49.506;10.400;2023-03-13T00:05:21;38.93;30.63;47.81;;
64393;Laerm;50712;49.506;10.400;2023-03-13T00:05:55;33.00;28.82;43.71;;
64393;Laerm;50712;49.506;10.400;2023-03-13T00:06:29;29.68;27.64;33.79;;
64393;Laerm;50712;49.506;10.400;2023-03-13T00:07:03;28.97;27.69;30.50;;
64393;Laerm;50712;49.506;10.400;2023-03-13T00:07:33;28.87;27.64;29.98;;
64393;Laerm;50712;49.506;10.400;2023-03-13T00:08:04;29.23;27.79;31.12;;
64393;Laerm;50712;49.506;10.400;2023-03-13T00:08:34;29.99;27.89;35.89;;
64393;Laerm;50712;49.506;10.400;2023-03-13T00:09:07;29.90;28.16;34.24;;
64393;Laerm;50712;49.506;10.400;2023-03-13T00:09:38;29.46;27.62;32.32;;
64393;Laerm;50712;49.506;10.400;2023-03-13T00:10:09;30.29;27.87;37.87;;
64393;Laerm;50712;49.506;10.400;2023-03-13T00:10:40;30.39;27.54;37.41;;
64393;Laerm;50712;49.506;10.400;2023-03-13T00:11:12;29.41;27.58;35.72;;
64393;Laerm;50712;49.506;10.400;2023-03-13T00:11:44;28.98;27.74;35.45;;
64393;Laerm;50712;49.506;10.400;2023-03-13T00:12:14;29.00;27.79;31.30;;
64393;Laerm;50712;49.506;10.400;2023-03-13T00:12:45;29.32;27.73;33.12;;
64393;Laerm;50712;49.506;10.400;2023-03-13T00:13:15;29.61;27.73;36.91;;
64393;Laerm;50712;49.506;10.400;2023-03-13T00:13:45;29.61;27.73;36.91;;
64393;Laerm;50712;49.506;10.400;2023-03-13T00:14:16;29.52;27.96;31.70;;
64393;Laerm;50712;49.506;10.400;2023-03-13T00:14:46;29.26;27.71;30.80;;
64393;Laerm;50712;49.506;10.400;2023-03-13T00:15:17;29.11;27.69;30.46;;
64393;Laerm;50712;49.506;10.400;2023-03-13T00:15:47;29.08;27.80;30.32;;
64393;Laerm;50712;49.506;10.400;2023-03-13T00:16:17;29.01;27.83;30.89;;
64393;Laerm;50712;49.506;10.400;2023-03-13T00:16:48;28.93;27.65;30.15;;
64393;Laerm;50712;49.506;10.400;2023-03-13T00:17:18;28.94;27.86;30.05;;
64393;Laerm;50712;49.506;10.400;2023-03-13T00:17:48;28.96;27.80;30.65;;
64393;Laerm;50712;49.506;10.400;2023-03-13T00:18:19;28.86;27.71;30.08;;
64393;Laerm;50712;49.506;10.400;2023-03-13T00:18:51;29.07;27.66;31.72;;
64393;Laerm;50712;49.506;10.400;2023-03-13T00:19:22;29.24;27.76;32.04;;
64393;Laerm;50712;49.506;10.400;2023-03-13T00:19:52;29.04;27.55;32.15;;
64393;Laerm;50712;49.506;10.400;2023-03-13T00:20:22;28.87;27.83;29.95;;
64393;Laerm;50712;49.506;10.400;2023-03-13T00:21:04;28.94;27.51;30.20;;
64393;Laerm;50712;49.506;10.400;2023-03-13T00:21:35;28.92;27.51;30.44;;
64393;Laerm;50712;49.506;10.400;2023-03-13T00:22:07;28.92;27.24;30.81;;
64393;Laerm;50712;49.506;10.400;2023-03-13T00:22:37;29.13;27.65;33.45;;
64393;Laerm;50712;49.506;10.400;2023-03-13T00:23:07;29.04;27.81;32.53;;
64393;Laerm;50712;49.506;10.400;2023-03-13T00:23:38;29.23;27.76;31.93;;
64393;Laerm;50712;49.506;10.400;2023-03-13T00:24:10;29.20;27.95;30.70;;
64393;Laerm;50712;49.506;10.400;2023-03-13T00:24:41;29.12;27.55;35.41;;
64393;Laerm;50712;49.506;10.400;2023-03-13T00:25:11;29.04;27.46;31.84;;
64393;Laerm;50712;49.506;10.400;2023-03-13T00:25:42;28.95;27.33;30.42;;
64393;Laerm;50712;49.506;10.400;2023-03-13T00:26:14;28.85;27.65;30.23;;
64393;Laerm;50712;49.506;10.400;2023-03-13T00:26:45;28.92;27.44;31.01;;
64393;Laerm;50712;49.506;10.400;2023-03-13T00:27:15;29.02;27.49;30.55;;
64393;Laerm;50712;49.506;10.400;2023-03-13T00:27:46;28.80;27.76;29.85;;
64393;Laerm;50712;49.506;10.400;2023-03-13T00:28:47;29.21;27.89;30.81;;
64393;Laerm;50712;49.506;10.400;2023-03-13T00:29:17;29.09;27.55;32.02;;
64393;Laerm;50712;49.506;10.400;2023-03-13T00:29:48;29.67;27.44;34.26;;
64393;Laerm;50712;49.506;10.400;2023-03-13T00:30:19;30.37;27.89;35.95;;
64393;Laerm;50712;49.506;10.400;2023-03-13T00:30:50;29.50;27.95;32.81;;
64393;Laerm;50712;49.506;10.400;2023-03-13T00:31:22;29.04;27.69;30.16;;
64393;Laerm;50712;49.506;10.400;2023-03-13T00:31:53;29.05;27.50;32.38;;
64393;Laerm;50712;49.506;10.400;2023-03-13T00:32:23;28.99;27.89;30.22;;
64393;Laerm;50712;49.506;10.400;2023-03-13T00:32:54;29.04;27.61;30.40;;
64393;Laerm;50712;49.506;10.400;2023-03-13T00:33:25;29.73;28.20;32.47;;
64393;Laerm;50712;49.506;10.400;2023-03-13T00:34:00;30.31;27.88;35.39;;
64393;Laerm;50712;49.506;10.400;2023-03-13T00:34:31;29.46;27.97;31.99;;
64393;Laerm;50712;49.506;10.400;2023-03-13T00:35:02;29.09;27.60;30.65;;
64393;Laerm;50712;49.506;10.400;2023-03-13T00:35:32;29.02;27.75;33.65;;
64393;Laerm;50712;49.506;10.400;2023-03-13T00:36:05;28.95;27.46;31.03;;
64393;Laerm;50712;49.506;10.400;2023-03-13T00:36:36;28.97;27.82;30.45;;
64393;Laerm;50712;49.506;10.400;2023-03-13T00:37:07;29.08;27.92;30.86;;
64393;Laerm;50712;49.506;10.400;2023-03-13T00:37:37;28.90;27.67;30.13;;
64393;Laerm;50712;49.506;10.400;2023-03-13T00:38:07;29.34;27.84;31.61;;
64393;Laerm;50712;49.506;10.400;2023-03-13T00:38:38;29.44;27.96;33.36;;
64393;Laerm;50712;49.506;10.400;2023-03-13T00:39:09;28.86;27.60;30.10;;
64393;Laerm;50712;49.506;10.400;2023-03-13T00:39:39;28.86;27.60;30.82;;
64393;Laerm;50712;49.506;10.400;2023-03-13T00:40:10;29.65;27.81;36.55;;
64393;Laerm;50712;49.506;10.400;2023-03-13T00:40:40;29.83;28.02;36.10;;
64393;Laerm;50712;49.506;10.400;2023-03-13T00:41:13;29.66;27.84;34.24;;
64393;Laerm;50712;49.506;10.400;2023-03-13T00:41:44;34.28;29.37;43.92;;
64393;Laerm;50712;49.506;10.400;2023-03-13T00:42:14;32.94;28.51;40.96;;
64393;Laerm;50712;49.506;10.400;2023-03-13T00:42:45;30.95;28.33;38.12;;
64393;Laerm;50712;49.506;10.400;2023-03-13T00:43:15;29.30;27.97;31.16;;
64393;Laerm;50712;49.506;10.400;2023-03-13T00:43:46;28.93;27.83;30.12;;
64393;Laerm;50712;49.506;10.400;2023-03-13T00:44:17;29.21;27.64;31.56;;
64393;Laerm;50712;49.506;10.400;2023-03-13T00:44:47;28.91;27.70;29.96;;
64393;Laerm;50712;49.506;10.400;2023-03-13T00:45:17;28.84;27.56;30.56;;
64393;Laerm;50712;49.506;10.400;2023-03-13T00:45:48;28.87;27.72;30.31;;
64393;Laerm;50712;49.506;10.400;2023-03-13T00:46:21;28.94;27.44;30.27;;
64393;Laerm;50712;49.506;10.400;2023-03-13T00:46:52;29.22;27.67;31.43;;
64393;Laerm;50712;49.506;10.400;2023-03-13T00:47:22;30.20;27.91;36.96;;
64393;Laerm;50712;49.506;10.400;2023-03-13T00:47:53;29.68;27.73;33.14;;
64393;Laerm;50712;49.506;10.400;2023-03-13T00:48:23;28.97;27.81;30.28;;
64393;Laerm;50712;49.506;10.400;2023-03-13T00:48:53;29.10;27.98;30.28;;
64393;Laerm;50712;49.506;10.400;2023-03-13T00:49:55;29.21;27.75;30.53;;
64393;Laerm;50712;49.506;10.400;2023-03-13T00:50:25;29.42;28.10;31.00;;
64393;Laerm;50712;49.506;10.400;2023-03-13T00:50:56;29.57;27.93;32.01;;
64393;Laerm;50712;49.506;10.400;2023-03-13T00:51:27;30.26;28.23;36.19;;
64393;Laerm;50712;49.506;10.400;2023-03-13T00:51:57;30.80;27.79;38.32;;
64393;Laerm;50712;49.506;10.400;2023-03-13T00:52:29;31.36;28.10;37.76;;
64393;Laerm;50712;49.506;10.400;2023-03-13T00:52:59;29.59;27.86;32.60;;
64393;Laerm;50712;49.506;10.400;2023-03-13T00:53:31;29.16;27.89;30.39;;
64393;Laerm;50712;49.506;10.400;2023-03-13T00:54:02;29.07;27.94;30.53;;
64393;Laerm;50712;49.506;10.400;2023-03-13T00:54:33;29.04;27.90;30.18;;
64393;Laerm;50712;49.506;10.400;2023-03-13T00:55:04;29.07;27.86;30.24;;
64393;Laerm;50712;49.506;10.400;2023-03-13T00:55:35;29.07;27.67;30.37;;
64393;Laerm;50712;49.506;10.400;2023-03-13T00:56:09;29.08;27.73;30.41;;
64393;Laerm;50712;49.506;10.400;2023-03-13T00:56:40;29.16;27.86;31.24;;
64393;Laerm;50712;49.506;10.400;2023-03-13T00:57:41;29.28;28.04;35.72;;
64393;Laerm;50712;49.506;10.400;2023-03-13T00:58:11;29.36;27.83;39.54;;
64393;Laerm;50712;49.506;10.400;2023-03-13T00:58:43;29.45;27.97;32.46;;
64393;Laerm;50712;49.506;10.400;2023-03-13T00:59:14;29.32;27.67;31.27;;
64393;Laerm;50712;49.506;10.400;2023-03-13T01:00:15;29.68;28.05;38.63;;
64393;Laerm;50712;49.506;10.400;2023-03-13T01:00:46;31.16;28.11;42.53;;
64393;Laerm;50712;49.506;10.400;2023-03-13T01:01:20;30.55;27.81;39.99;;
64393;Laerm;50712;49.506;10.400;2023-03-13T01:01:51;30.16;28.03;34.94;;
64393;Laerm;50712;49.506;10.400;2023-03-13T01:02:21;36.54;30.04;47.65;;
64393;Laerm;50712;49.506;10.400;2023-03-13T01:02:52;37.21;30.05;44.35;;
64393;Laerm;50712;49.506;10.400;2023-03-13T01:03:23;35.13;29.63;42.33;;
64393;Laerm;50712;49.506;10.400;2023-03-13T01:03:59;31.56;28.06;38.44;;
64393;Laerm;50712;49.506;10.400;2023-03-13T01:04:30;29.49;28.02;34.56;;
64393;Laerm;50712;49.506;10.400;2023-03-13T01:05:00;29.07;27.78;30.30;;
64393;Laerm;50712;49.506;10.400;2023-03-13T01:05:31;29.16;27.93;31.39;;
64393;Laerm;50712;49.506;10.400;2023-03-13T01:06:05;29.02;27.71;30.44;;
64393;Laerm;50712;49.506;10.400;2023-03-13T01:06:38;29.00;27.80;30.53;;
64393;Laerm;50712;49.506;10.400;2023-03-13T01:07:10;29.16;27.83;36.81;;
64393;Laerm;50712;49.506;10.400;2023-03-13T01:07:40;29.42;27.75;35.17;;
64393;Laerm;50712;49.506;10.400;2023-03-13T01:08:10;29.85;28.07;36.29;;
64393;Laerm;50712;49.506;10.400;2023-03-13T01:08:41;29.26;28.01;30.77;;
64393;Laerm;50712;49.506;10.400;2023-03-13T01:09:13;29.05;27.82;30.78;;
64393;Laerm;50712;49.506;10.400;2023-03-13T01:09:45;29.00;27.88;30.18;;
64393;Laerm;50712;49.506;10.400;2023-03-13T01:10:15;28.92;27.56;30.19;;
64393;Laerm;50712;49.506;10.400;2023-03-13T01:10:46;29.02;27.78;30.11;;
64393;Laerm;50712;49.506;10.400;2023-03-13T01:11:21;29.11;27.94;30.49;;
64393;Laerm;50712;49.506;10.400;2023-03-13T01:11:52;29.11;27.46;31.06;;
64393;Laerm;50712;49.506;10.400;2023-03-13T01:12:22;29.23;27.81;30.88;;
64393;Laerm;50712;49.506;10.400;2023-03-13T01:12:52;29.08;27.82;30.82;;
64393;Laerm;50712;49.506;10.400;2023-03-13T01:13:23;29.04;27.76;30.24;;
64393;Laerm;50712;49.506;10.400;2023-03-13T01:13:59;28.98;27.62;30.33;;
64393;Laerm;50712;49.506;10.400;2023-03-13T01:14:30;28.93;27.63;30.41;;
64393;Laerm;50712;49.506;10.400;2023-03-13T01:15:00;28.99;27.65;30.43;;
64393;Laerm;50712;49.506;10.400;2023-03-13T01:15:33;28.98;27.77;30.31;;
64393;Laerm;50712;49.506;10.400;2023-03-13T01:16:09;28.91;27.77;29.98;;
64393;Laerm;50712;49.506;10.400;2023-03-13T01:16:40;28.88;27.62;30.20;;
64393;Laerm;50712;49.506;10.400;2023-03-13T01:17:11;28.77;27.63;30.08;;
64393;Laerm;50712;49.506;10.400;2023-03-13T01:17:43;29.07;27.65;30.48;;
64393;Laerm;50712;49.506;10.400;2023-03-13T01:18:13;28.99;27.55;30.09;;
64393;Laerm;50712;49.506;10.400;2023-03-13T01:18:47;28.93;27.71;30.19;;
64393;Laerm;50712;49.506;10.400;2023-03-13T01:19:17;29.33;27.86;31.70;;
64393;Laerm;50712;49.506;10.400;2023-03-13T01:19:49;29.07;27.58;30.49;;
64393;Laerm;50712;49.506;10.400;2023-03-13T01:20:49;28.86;27.92;30.04;;
64393;Laerm;50712;49.506;10.400;2023-03-13T01:21:22;28.90;27.81;30.22;;
64393;Laerm;50712;49.506;10.400;2023-03-13T01:21:53;29.02;27.66;30.31;;
64393;Laerm;50712;49.506;10.400;2023-03-13T01:22:24;28.82;27.79;31.47;;
64393;Laerm;50712;49.506;10.400;2023-03-13T01:22:54;28.78;27.76;30.09;;
64393;Laerm;50712;49.506;10.400;2023-03-13T01:23:25;28.81;27.37;29.83;;
64393;Laerm;50712;49.506;10.400;2023-03-13T01:23:56;29.22;27.68;32.90;;
64393;Laerm;50712;49.506;10.400;2023-03-13T01:24:27;28.95;27.71;30.06;;
64393;Laerm;50712;49.506;10.400;2023-03-13T01:24:57;28.91;27.58;30.41;;
64393;Laerm;50712;49.506;10.400;2023-03-13T01:25:28;28.99;27.85;30.28;;
64393;Laerm;50712;49.506;10.400;2023-03-13T01:25:58;28.84;27.42;30.08;;
64393;Laerm;50712;49.506;10.400;2023-03-13T01:26:30;28.90;27.60;30.14;;
64393;Laerm;50712;49.506;10.400;2023-03-13T01:27:00;28.86;27.47;30.27;;
64393;Laerm;50712;49.506;10.400;2023-03-13T01:27:31;28.91;27.56;30.00;;
64393;Laerm;50712;49.506;10.400;2023-03-13T01:28:01;28.82;27.71;29.96;;
64393;Laerm;50712;49.506;10.400;2023-03-13T01:28:32;29.09;27.72;33.45;;
64393;Laerm;50712;49.506;10.400;2023-03-13T01:29:03;29.21;27.86;30.85;;
64393;Laerm;50712;49.506;10.400;2023-03-13T01:29:34;29.07;27.66;30.69;;
64393;Laerm;50712;49.506;10.400;2023-03-13T01:30:04;29.38;27.99;32.46;;
64393;Laerm;50712;49.506;10.400;2023-03-13T01:30:35;29.11;27.78;30.58;;
64393;Laerm;50712;49.506;10.400;2023-03-13T01:31:15;29.08;27.56;30.52;;
64393;Laerm;50712;49.506;10.400;2023-03-13T01:31:47;29.11;27.91;31.42;;
64393;Laerm;50712;49.506;10.400;2023-03-13T01:32:18;28.93;27.30;30.05;;
64393;Laerm;50712;49.506;10.400;2023-03-13T01:32:48;28.98;27.70;30.24;;
64393;Laerm;50712;49.506;10.400;2023-03-13T01:33:18;29.11;27.62;31.10;;
64393;Laerm;50712;49.506;10.400;2023-03-13T01:33:53;29.08;27.58;30.18;;
64393;Laerm;50712;49.506;10.400;2023-03-13T01:34:24;29.00;27.37;30.85;;
64393;Laerm;50712;49.506;10.400;2023-03-13T01:34:55;28.90;27.55;30.23;;
64393;Laerm;50712;49.506;10.400;2023-03-13T01:35:25;28.85;27.53;30.20;;
64393;Laerm;50712;49.506;10.400;2023-03-13T01:36:02;28.93;27.62;30.09;;
64393;Laerm;50712;49.506;10.400;2023-03-13T01:36:35;28.90;27.25;30.14;;
64393;Laerm;50712;49.506;10.400;2023-03-13T01:37:06;28.98;27.70;30.15;;
64393;Laerm;50712;49.506;10.400;2023-03-13T01:37:37;28.96;27.33;31.17;;
64393;Laerm;50712;49.506;10.400;2023-03-13T01:38:07;29.38;27.93;32.01;;
64393;Laerm;50712;49.506;10.400;2023-03-13T01:38:39;29.17;27.82;30.66;;
64393;Laerm;50712;49.506;10.400;2023-03-13T01:39:09;33.36;28.11;43.59;;
64393;Laerm;50712;49.506;10.400;2023-03-13T01:39:40;35.03;29.59;42.51;;
64393;Laerm;50712;49.506;10.400;2023-03-13T01:40:11;34.30;28.54;43.70;;
64393;Laerm;50712;49.506;10.400;2023-03-13T01:40:44;33.37;28.80;41.33;;
64393;Laerm;50712;49.506;10.400;2023-03-13T01:41:16;31.36;28.53;37.55;;
64393;Laerm;50712;49.506;10.400;2023-03-13T01:41:47;29.82;27.85;34.53;;
64393;Laerm;50712;49.506;10.400;2023-03-13T01:42:17;29.21;28.02;31.49;;
64393;Laerm;50712;49.506;10.400;2023-03-13T01:43:27;29.90;27.78;34.12;;
64393;Laerm;50712;49.506;10.400;2023-03-13T01:43:59;29.90;27.78;34.12;;
64393;Laerm;50712;49.506;10.400;2023-03-13T01:44:55;29.09;27.62;30.52;;
64393;Laerm;50712;49.506;10.400;2023-03-13T01:45:53;29.36;27.98;31.25;;
64393;Laerm;50712;49.506;10.400;2023-03-13T01:46:26;30.32;28.08;37.95;;
64393;Laerm;50712;49.506;10.400;2023-03-13T01:47:02;32.46;28.02;43.60;;
64393;Laerm;50712;49.506;10.400;2023-03-13T01:47:58;30.57;28.46;38.59;;
64393;Laerm;50712;49.506;10.400;2023-03-13T01:48:52;30.85;28.11;36.53;;
64393;Laerm;50712;49.506;10.400;2023-03-13T01:49:30;29.96;27.73;33.14;;
64393;Laerm;50712;49.506;10.400;2023-03-13T01:50:08;29.46;28.17;31.68;;
64393;Laerm;50712;49.506;10.400;2023-03-13T01:50:52;29.29;27.80;32.30;;
64393;Laerm;50712;49.506;10.400;2023-03-13T01:51:41;29.36;27.55;32.28;;
64393;Laerm;50712;49.506;10.400;2023-03-13T01:52:19;29.71;27.92;32.44;;
64393;Laerm;50712;49.506;10.400;2023-03-13T01:52:58;29.59;27.84;32.20;;
64393;Laerm;50712;49.506;10.400;2023-03-13T01:53:34;29.15;27.71;32.20;;
64393;Laerm;50712;49.506;10.400;2023-03-13T01:54:31;28.98;27.41;31.16;;
64393;Laerm;50712;49.506;10.400;2023-03-13T01:55:11;29.03;27.71;31.62;;
64393;Laerm;50712;49.506;10.400;2023-03-13T01:55:46;29.06;27.69;31.15;;
64393;Laerm;50712;49.506;10.400;2023-03-13T01:56:25;29.23;27.97;32.27;;
64393;Laerm;50712;49.506;10.400;2023-03-13T01:57:03;29.42;27.72;31.74;;
64393;Laerm;50712;49.506;10.400;2023-03-13T01:57:48;29.01;27.54;32.35;;
64393;Laerm;50712;49.506;10.400;2023-03-13T01:58:20;28.94;27.54;32.97;;
64393;Laerm;50712;49.506;10.400;2023-03-13T01:58:51;29.11;27.67;32.92;;
64393;Laerm;50712;49.506;10.400;2023-03-13T01:59:29;29.69;27.75;34.63;;
64393;Laerm;50712;49.506;10.400;2023-03-13T02:00:07;34.36;28.17;49.81;;
64393;Laerm;50712;49.506;10.400;2023-03-13T02:00:46;30.23;28.06;42.20;;
64393;Laerm;50712;49.506;10.400;2023-03-13T02:01:17;29.30;27.82;34.94;;
64393;Laerm;50712;49.506;10.400;2023-03-13T02:01:51;30.65;28.18;43.76;;
64393;Laerm;50712;49.506;10.400;2023-03-13T02:02:22;30.51;27.78;44.80;;
64393;Laerm;50712;49.506;10.400;2023-03-13T02:02:55;29.30;27.59;32.40;;
64393;Laerm;50712;49.506;10.400;2023-03-13T02:03:28;29.64;27.69;33.28;;
64393;Laerm;50712;49.506;10.400;2023-03-13T02:03:58;29.95;28.09;33.58;;
64393;Laerm;50712;49.506;10.400;2023-03-13T02:04:34;29.61;27.76;35.35;;
64393;Laerm;50712;49.506;10.400;2023-03-13T02:05:05;29.31;27.62;31.17;;
64393;Laerm;50712;49.506;10.400;2023-03-13T02:05:37;29.39;28.08;32.60;;
64393;Laerm;50712;49.506;10.400;2023-03-13T02:06:40;30.34;27.74;35.86;;
64393;Laerm;50712;49.506;10.400;2023-03-13T02:07:17;29.24;27.54;33.36;;
64393;Laerm;50712;49.506;10.400;2023-03-13T02:07:54;28.93;27.58;31.32;;
64393;Laerm;50712;49.506;10.400;2023-03-13T02:08:32;29.09;27.81;30.52;;
64393;Laerm;50712;49.506;10.400;2023-03-13T02:09:07;29.47;27.72;32.53;;
64393;Laerm;50712;49.506;10.400;2023-03-13T02:09:41;29.73;27.62;33.33;;
64393;Laerm;50712;49.506;10.400;2023-03-13T02:10:14;29.33;27.95;31.00;;
64393;Laerm;50712;49.506;10.400;2023-03-13T02:10:50;30.01;28.19;34.08;;
64393;Laerm;50712;49.506;10.400;2023-03-13T02:11:28;29.87;27.98;32.76;;
64393;Laerm;50712;49.506;10.400;2023-03-13T02:12:10;29.53;28.11;31.76;;
64393;Laerm;50712;49.506;10.400;2023-03-13T02:12:43;29.26;27.65;31.14;;
64393;Laerm;50712;49.506;10.400;2023-03-13T02:13:14;29.22;27.85;31.80;;
64393;Laerm;50712;49.506;10.400;2023-03-13T02:13:47;29.34;28.02;32.39;;
64393;Laerm;50712;49.506;10.400;2023-03-13T02:14:20;29.39;28.02;32.01;;
64393;Laerm;50712;49.506;10.400;2023-03-13T02:14:52;29.17;27.74;30.66;;
64393;Laerm;50712;49.506;10.400;2023-03-13T02:15:25;29.94;27.70;38.50;;
64393;Laerm;50712;49.506;10.400;2023-03-13T02:15:57;31.84;28.69;38.78;;
64393;Laerm;50712;49.506;10.400;2023-03-13T02:16:28;32.33;28.48;40.77;;
64393;Laerm;50712;49.506;10.400;2023-03-13T02:16:59;32.95;28.35;47.16;;
64393;Laerm;50712;49.506;10.400;2023-03-13T02:17:31;30.25;28.29;35.77;;
64393;Laerm;50712;49.506;10.400;2023-03-13T02:18:03;29.70;27.92;31.77;;
64393;Laerm;50712;49.506;10.400;2023-03-13T02:18:35;29.18;27.75;31.28;;
64393;Laerm;50712;49.506;10.400;2023-03-13T02:20:02;29.16;27.79;30.43;;
64393;Laerm;50712;49.506;10.400;2023-03-13T02:20:33;30.05;28.24;33.79;;
64393;Laerm;50712;49.506;10.400;2023-03-13T02:21:13;29.21;27.74;30.62;;
64393;Laerm;50712;49.506;10.400;2023-03-13T02:22:37;29.19;27.74;31.05;;
64393;Laerm;50712;49.506;10.400;2023-03-13T02:23:24;29.18;27.65;32.02;;
64393;Laerm;50712;49.506;10.400;2023-03-13T02:24:20;30.14;28.16;34.38;;
64393;Laerm;50712;49.506;10.400;2023-03-13T02:25:50;29.60;27.88;32.80;;
64393;Laerm;50712;49.506;10.400;2023-03-13T02:26:25;29.34;27.98;30.81;;
64393;Laerm;50712;49.506;10.400;2023-03-13T02:26:55;29.36;27.90;32.58;;
64393;Laerm;50712;49.506;10.400;2023-03-13T02:27:26;31.69;28.15;38.45;;
64393;Laerm;50712;49.506;10.400;2023-03-13T02:28:32;29.36;27.83;33.20;;
64393;Laerm;50712;49.506;10.400;2023-03-13T02:29:04;29.64;28.13;39.51;;
64393;Laerm;50712;49.506;10.400;2023-03-13T02:29:35;30.24;28.40;36.99;;
64393;Laerm;50712;49.506;10.400;2023-03-13T02:30:08;31.71;28.73;36.63;;
64393;Laerm;50712;49.506;10.400;2023-03-13T02:30:41;32.39;28.59;41.27;;
64393;Laerm;50712;49.506;10.400;2023-03-13T02:31:12;29.65;28.08;31.85;;
64393;Laerm;50712;49.506;10.400;2023-03-13T02:31:45;29.47;27.93;31.57;;
64393;Laerm;50712;49.506;10.400;2023-03-13T02:32:16;30.89;28.10;39.62;;
64393;Laerm;50712;49.506;10.400;2023-03-13T02:32:46;29.22;27.93;30.73;;
64393;Laerm;50712;49.506;10.400;2023-03-13T02:33:18;29.18;27.80;30.73;;
64393;Laerm;50712;49.506;10.400;2023-03-13T02:33:49;29.91;27.92;34.05;;
64393;Laerm;50712;49.506;10.400;2023-03-13T02:34:27;29.51;27.93;36.84;;
64393;Laerm;50712;49.506;10.400;2023-03-13T02:35:03;30.39;27.97;38.87;;
64393;Laerm;50712;49.506;10.400;2023-03-13T02:35:35;30.05;28.19;33.31;;
64393;Laerm;50712;49.506;10.400;2023-03-13T02:36:10;30.65;27.78;39.69;;
64393;Laerm;50712;49.506;10.400;2023-03-13T02:36:43;29.27;27.95;32.34;;
64393;Laerm;50712;49.506;10.400;2023-03-13T02:37:15;29.32;27.94;31.47;;
64393;Laerm;50712;49.506;10.400;2023-03-13T02:37:49;29.90;27.60;35.16;;
64393;Laerm;50712;49.506;10.400;2023-03-13T02:38:26;29.73;27.98;32.51;;
64393;Laerm;50712;49.506;10.400;2023-03-13T02:39:01;31.08;28.01;35.11;;
64393;Laerm;50712;49.506;10.400;2023-03-13T02:39:34;30.65;27.94;34.66;;
64393;Laerm;50712;49.506;10.400;2023-03-13T02:40:08;29.58;27.89;31.44;;
64393;Laerm;50712;49.506;10.400;2023-03-13T02:40:43;29.16;27.88;30.83;;
64393;Laerm;50712;49.506;10.400;2023-03-13T02:41:16;29.10;27.76;30.92;;
64393;Laerm;50712;49.506;10.400;2023-03-13T02:41:47;29.22;28.00;32.64;;
64393;Laerm;50712;49.506;10.400;2023-03-13T02:42:21;29.28;27.75;31.34;;
64393;Laerm;50712;49.506;10.400;2023-03-13T02:42:53;29.40;27.97;31.41;;
64393;Laerm;50712;49.506;10.400;2023-03-13T02:43:30;31.15;27.99;42.76;;
64393;Laerm;50712;49.506;10.400;2023-03-13T02:44:01;31.01;28.87;34.51;;
64393;Laerm;50712;49.506;10.400;2023-03-13T02:44:39;31.01;28.87;34.51;;
64393;Laerm;50712;49.506;10.400;2023-03-13T02:45:13;29.63;28.08;31.20;;
64393;Laerm;50712;49.506;10.400;2023-03-13T02:46:00;29.29;27.91;31.00;;
64393;Laerm;50712;49.506;10.400;2023-03-13T02:46:30;31.15;28.47;38.28;;
64393;Laerm;50712;49.506;10.400;2023-03-13T02:47:17;30.02;28.12;34.82;;
64393;Laerm;50712;49.506;10.400;2023-03-13T02:47:48;29.64;28.07;35.40;;
64393;Laerm;50712;49.506;10.400;2023-03-13T02:48:30;31.20;28.07;45.81;;
64393;Laerm;50712;49.506;10.400;2023-03-13T02:49:18;29.70;28.01;31.59;;
64393;Laerm;50712;49.506;10.400;2023-03-13T02:49:49;30.54;28.25;38.57;;
64393;Laerm;50712;49.506;10.400;2023-03-13T02:50:20;31.83;27.99;38.00;;
64393;Laerm;50712;49.506;10.400;2023-03-13T02:50:51;32.03;28.49;42.64;;
64393;Laerm;50712;49.506;10.400;2023-03-13T02:51:26;30.75;28.63;34.01;;
64393;Laerm;50712;49.506;10.400;2023-03-13T02:52:45;31.76;29.05;37.89;;
64393;Laerm;50712;49.506;10.400;2023-03-13T02:53:18;31.39;29.02;37.28;;
64393;Laerm;50712;49.506;10.400;2023-03-13T02:53:50;31.12;29.00;36.20;;
64393;Laerm;50712;49.506;10.400;2023-03-13T02:54:25;30.44;28.69;35.86;;
64393;Laerm;50712;49.506;10.400;2023-03-13T02:54:59;30.54;28.59;35.21;;
64393;Laerm;50712;49.506;10.400;2023-03-13T02:55:34;31.16;29.19;38.73;;
64393;Laerm;50712;49.506;10.400;2023-03-13T02:56:07;30.78;28.22;39.09;;
64393;Laerm;50712;49.506;10.400;2023-03-13T02:56:39;29.78;28.31;32.68;;
64393;Laerm;50712;49.506;10.400;2023-03-13T02:57:12;29.61;28.15;31.42;;
64393;Laerm;50712;49.506;10.400;2023-03-13T02:57:43;30.71;28.22;39.82;;
64393;Laerm;50712;49.506;10.400;2023-03-13T02:58:14;30.88;28.44;35.96;;
64393;Laerm;50712;49.506;10.400;2023-03-13T02:58:44;33.24;28.85;40.91;;
64393;Laerm;50712;49.506;10.400;2023-03-13T02:59:15;30.32;28.22;34.14;;
64393;Laerm;50712;49.506;10.400;2023-03-13T02:59:48;29.95;28.00;33.73;;
64393;Laerm;50712;49.506;10.400;2023-03-13T03:00:18;29.91;28.06;34.61;;
64393;Laerm;50712;49.506;10.400;2023-03-13T03:01:21;29.40;27.96;31.89;;
64393;Laerm;50712;49.506;10.400;2023-03-13T03:01:51;29.89;27.97;32.84;;
64393;Laerm;50712;49.506;10.400;2023-03-13T03:02:22;30.09;28.29;33.35;;
64393;Laerm;50712;49.506;10.400;2023-03-13T03:02:53;30.04;28.08;32.56;;
64393;Laerm;50712;49.506;10.400;2023-03-13T03:03:24;30.45;28.61;37.67;;
64393;Laerm;50712;49.506;10.400;2023-03-13T03:04:25;30.90;28.97;36.00;;
64393;Laerm;50712;49.506;10.400;2023-03-13T03:05:30;30.49;28.79;32.99;;
64393;Laerm;50712;49.506;10.400;2023-03-13T03:06:03;31.17;29.13;35.31;;
64393;Laerm;50712;49.506;10.400;2023-03-13T03:06:33;37.61;29.36;52.36;;
64393;Laerm;50712;49.506;10.400;2023-03-13T03:07:06;33.19;28.94;39.69;;
64393;Laerm;50712;49.506;10.400;2023-03-13T03:07:37;31.09;28.92;37.34;;
64393;Laerm;50712;49.506;10.400;2023-03-13T03:08:09;31.54;29.32;35.31;;
64393;Laerm;50712;49.506;10.400;2023-03-13T03:08:40;30.91;28.52;34.54;;
64393;Laerm;50712;49.506;10.400;2023-03-13T03:09:14;31.74;29.14;37.58;;
64393;Laerm;50712;49.506;10.400;2023-03-13T03:09:45;30.75;28.52;33.42;;
64393;Laerm;50712;49.506;10.400;2023-03-13T03:10:21;32.74;28.72;40.65;;